createdAt,value
2023-03-06T00:01:24.855Z,0.98
2023-03-06T00:04:28.339Z,1.06
2023-03-06T00:07:31.518Z,1.10
2023-03-06T00:10:35.289Z,0.89
2023-03-06T00:13:38.955Z,0.74
2023-03-06T00:16:42.390Z,0.40
2023-03-06T00:19:45.623Z,0.36
2023-03-06T00:22:49.649Z,0.16
2023-03-06T00:25:52.825Z,-0.03
2023-03-06T00:28:56.448Z,-0.15
2023-03-06T00:31:59.941Z,-0.25
2023-03-06T00:35:03.596Z,-0.26
2023-03-06T00:38:07.369Z,-0.31
2023-03-06T00:41:13.814Z,-0.62
2023-03-06T00:44:17.079Z,-0.53
2023-03-06T00:47:21.818Z,-0.78
2023-03-06T00:50:24.996Z,-0.70
2023-03-06T00:53:29.521Z,-0.61
2023-03-06T00:56:32.588Z,-0.58
2023-03-06T00:59:36.036Z,-0.68
2023-03-06T01:02:39.545Z,-0.70
2023-03-06T01:05:43.254Z,-0.48
2023-03-06T01:08:47.092Z,-0.37
2023-03-06T01:11:50.646Z,-0.36
2023-03-06T01:14:53.825Z,-0.35
2023-03-06T01:17:57.477Z,-0.24
2023-03-06T01:21:00.654Z,-0.23
2023-03-06T01:24:04.297Z,-0.25
2023-03-06T01:27:07.680Z,-0.34
2023-03-06T01:30:12.500Z,-0.25
2023-03-06T01:33:16.318Z,-0.22
2023-03-06T01:36:21.030Z,-0.25
2023-03-06T01:39:24.458Z,-0.26
2023-03-06T01:42:28.715Z,-0.23
2023-03-06T01:45:35.090Z,-0.35
2023-03-06T01:48:40.076Z,-0.26
2023-03-06T01:52:05.991Z,-0.29
2023-03-06T01:55:16.102Z,-0.29
2023-03-06T01:58:20.210Z,-0.24
2023-03-06T02:01:23.895Z,-0.26
2023-03-06T02:04:29.424Z,-0.26
2023-03-06T02:07:34.639Z,-0.25
2023-03-06T02:10:38.093Z,-0.17
2023-03-06T02:13:42.218Z,-0.15
2023-03-06T02:16:45.793Z,-0.14
2023-03-06T02:20:02.625Z,-0.14
2023-03-06T02:23:24.754Z,-0.16
2023-03-06T02:26:29.841Z,-0.13
2023-03-06T02:29:33.778Z,-0.06
2023-03-06T02:32:37.521Z,-0.03
2023-03-06T02:35:46.985Z,0.04
2023-03-06T02:38:51.615Z,0.15
2023-03-06T02:41:55.921Z,0.25
2023-03-06T02:45:02.447Z,0.40
2023-03-06T02:48:06.959Z,0.41
2023-03-06T02:51:10.072Z,0.69
2023-03-06T02:54:13.479Z,0.82
2023-03-06T02:57:18.669Z,0.82
2023-03-06T03:00:23.686Z,0.89
2023-03-06T03:03:26.857Z,1.01
2023-03-06T03:06:31.791Z,1.03
2023-03-06T03:09:37.102Z,1.11
2023-03-06T03:12:42.750Z,1.11
2023-03-06T03:15:46.196Z,1.23
2023-03-06T03:18:51.193Z,1.30
2023-03-06T03:21:54.972Z,1.38
2023-03-06T03:24:59.012Z,1.50
2023-03-06T03:28:02.818Z,1.49
2023-03-06T03:31:09.136Z,1.57
2023-03-06T03:34:12.623Z,1.62
2023-03-06T03:37:16.727Z,1.63
2023-03-06T03:40:20.091Z,1.61
2023-03-06T03:43:25.221Z,1.71
2023-03-06T03:46:28.540Z,1.72
2023-03-06T03:49:32.179Z,1.71
2023-03-06T03:52:35.465Z,1.70
2023-03-06T03:55:39.511Z,1.72
2023-03-06T03:58:43.085Z,1.70
2023-03-06T04:01:47.190Z,1.65
2023-03-06T04:04:51.775Z,1.66
2023-03-06T04:07:56.625Z,1.64
2023-03-06T04:11:00.543Z,1.63
2023-03-06T04:14:05.725Z,1.60
2023-03-06T04:17:10.560Z,1.57
2023-03-06T04:20:15.075Z,1.54
2023-03-06T04:23:21.349Z,1.51
2023-03-06T04:26:24.487Z,1.47
2023-03-06T04:29:28.598Z,1.44
2023-03-06T04:32:32.237Z,1.42
2023-03-06T04:35:36.404Z,1.42
2023-03-06T04:38:40.025Z,1.42
2023-03-06T04:41:43.981Z,1.45
2023-03-06T04:44:47.211Z,1.40
2023-03-06T04:47:50.698Z,1.45
2023-03-06T04:50:53.948Z,1.47
2023-03-06T04:53:57.535Z,1.35
2023-03-06T04:57:00.824Z,1.65
2023-03-06T05:00:06.990Z,1.60
2023-03-06T05:03:12.388Z,1.65
2023-03-06T05:06:16.114Z,1.59
2023-03-06T05:09:19.640Z,1.62
2023-03-06T05:15:47.515Z,1.55
2023-03-06T05:18:51.264Z,1.30
2023-03-06T05:21:57.365Z,1.51
2023-03-06T05:25:01.009Z,1.50
2023-03-06T05:28:04.310Z,1.50
2023-03-06T05:31:08.063Z,1.47
2023-03-06T05:34:15.463Z,1.48
2023-03-06T05:37:18.939Z,1.45
2023-03-06T05:40:22.680Z,1.41
2023-03-06T05:43:26.163Z,1.39
2023-03-06T05:46:29.391Z,1.40
2023-03-06T05:49:35.714Z,1.39
2023-03-06T05:52:40.050Z,1.24
2023-03-06T05:55:43.580Z,1.31
2023-03-06T05:58:46.974Z,1.33
2023-03-06T06:01:50.412Z,1.30
2023-03-06T06:04:56.086Z,1.27
2023-03-06T06:08:02.564Z,1.27
2023-03-06T06:11:07.517Z,1.28
2023-03-06T06:14:10.995Z,1.23
2023-03-06T06:17:14.689Z,1.28
2023-03-06T06:20:18.958Z,1.26
2023-03-06T06:23:22.722Z,1.27
2023-03-06T06:26:26.394Z,1.27
2023-03-06T06:29:30.224Z,1.16
2023-03-06T06:32:33.711Z,1.34
2023-03-06T06:35:37.439Z,1.34
2023-03-06T06:38:40.715Z,1.40
2023-03-06T06:42:02.365Z,1.44
2023-03-06T06:45:11.744Z,1.45
2023-03-06T06:48:17.879Z,1.53
2023-03-06T06:51:23.421Z,1.54
2023-03-06T06:54:28.518Z,1.53
2023-03-06T06:57:31.862Z,1.52
2023-03-06T07:00:35.254Z,1.57
2023-03-06T07:03:39.657Z,1.65
2023-03-06T07:06:43.544Z,1.71
2023-03-06T07:09:47.062Z,1.72
2023-03-06T07:12:50.729Z,1.67
2023-03-06T07:15:54.240Z,1.64
2023-03-06T07:18:57.704Z,1.69
2023-03-06T07:22:00.882Z,1.71
2023-03-06T07:25:06.382Z,1.70
2023-03-06T07:28:09.439Z,1.73
2023-03-06T07:31:13.133Z,1.79
2023-03-06T07:34:16.817Z,1.68
2023-03-06T07:37:20.568Z,1.73
2023-03-06T07:40:24.595Z,1.73
2023-03-06T07:43:28.198Z,1.78
2023-03-06T07:46:33.032Z,1.84
2023-03-06T07:49:38.061Z,1.86
2023-03-06T07:52:41.861Z,1.85
2023-03-06T07:55:45.700Z,1.90
2023-03-06T07:58:49.232Z,1.96
2023-03-06T08:01:55.562Z,2.04
2023-03-06T08:04:59.033Z,2.07
2023-03-06T08:08:02.371Z,2.04
2023-03-06T08:11:06.869Z,2.15
2023-03-06T08:14:10.266Z,2.05
2023-03-06T08:17:13.969Z,2.00
2023-03-06T08:20:18.683Z,2.06
2023-03-06T08:23:21.976Z,2.09
2023-03-06T08:26:27.674Z,2.09
2023-03-06T08:29:32.336Z,2.11
2023-03-06T08:32:38.727Z,2.12
2023-03-06T08:35:42.298Z,2.11
2023-03-06T08:38:45.546Z,2.03
2023-03-06T08:41:48.989Z,2.13
2023-03-06T08:44:52.191Z,2.18
2023-03-06T08:47:55.648Z,2.23
2023-03-06T08:50:59.791Z,2.11
2023-03-06T08:54:03.565Z,2.27
2023-03-06T08:57:07.197Z,2.26
2023-03-06T09:00:11.325Z,2.28
2023-03-06T09:03:14.820Z,2.32
2023-03-06T09:06:18.285Z,2.31
2023-03-06T09:09:21.484Z,2.24
2023-03-06T09:12:25.676Z,2.24
2023-03-06T09:15:29.178Z,2.36
2023-03-06T09:18:33.340Z,2.57
2023-03-06T09:21:36.494Z,2.64
2023-03-06T09:24:39.978Z,2.72
2023-03-06T09:27:43.092Z,2.92
2023-03-06T09:30:46.570Z,3.18
2023-03-06T09:33:50.087Z,3.36
2023-03-06T09:36:57.238Z,3.33
2023-03-06T09:40:00.708Z,3.28
2023-03-06T09:43:04.980Z,3.37
2023-03-06T09:46:14.185Z,3.61
2023-03-06T09:49:55.511Z,3.72
2023-03-06T09:53:17.423Z,3.67
2023-03-06T09:56:23.708Z,3.79
2023-03-06T09:59:28.794Z,3.69
2023-03-06T10:02:54.373Z,3.63
2023-03-06T10:06:04.704Z,3.60
2023-03-06T10:09:13.443Z,3.39
2023-03-06T10:12:39.053Z,3.42
2023-03-06T10:15:45.247Z,3.44
2023-03-06T10:18:48.670Z,3.50
2023-03-06T10:23:00.795Z,3.74
2023-03-06T10:26:19.726Z,3.61
2023-03-06T10:30:02.277Z,3.73
2023-03-06T10:33:23.078Z,3.71
2023-03-06T10:36:27.992Z,3.74
2023-03-06T10:39:31.675Z,3.74
2023-03-06T10:42:34.794Z,3.79
2023-03-06T10:45:49.768Z,3.82
2023-03-06T10:48:59.057Z,3.91
2023-03-06T10:52:07.041Z,4.21
2023-03-06T10:55:31.868Z,4.16
2023-03-06T10:58:35.450Z,4.38
2023-03-06T11:01:40.944Z,4.55
2023-03-06T11:04:47.488Z,4.87
2023-03-06T11:07:56.352Z,4.91
2023-03-06T11:11:06.432Z,4.76
2023-03-06T11:14:27.602Z,4.82
2023-03-06T11:17:32.273Z,4.96
2023-03-06T11:20:52.610Z,5.18
2023-03-06T11:24:03.505Z,5.26
2023-03-06T11:27:34.489Z,5.17
2023-03-06T11:30:52.650Z,5.21
2023-03-06T11:34:08.404Z,5.08
2023-03-06T11:37:37.267Z,4.81
2023-03-06T11:40:46.311Z,4.98
2023-03-06T11:44:22.094Z,4.99
2023-03-06T11:47:44.931Z,5.27
2023-03-06T11:50:53.377Z,5.42
2023-03-06T11:54:00.210Z,5.42
2023-03-06T11:57:11.583Z,5.25
2023-03-06T12:00:47.449Z,5.07
2023-03-06T12:04:03.296Z,4.69
2023-03-06T12:07:36.058Z,4.57
2023-03-06T12:10:51.794Z,4.44
2023-03-06T12:13:55.359Z,4.44
2023-03-06T12:17:06.985Z,4.51
2023-03-06T12:20:34.746Z,4.48
2023-03-06T12:23:59.902Z,4.43
2023-03-06T12:27:20.170Z,4.36
2023-03-06T12:30:57.181Z,4.26
2023-03-06T12:34:07.098Z,4.19
2023-03-06T12:37:36.367Z,4.11
2023-03-06T12:41:15.893Z,4.10
2023-03-06T12:44:27.989Z,4.04
2023-03-06T12:47:38.954Z,4.02
2023-03-06T12:50:45.884Z,4.07
2023-03-06T12:53:51.501Z,4.05
2023-03-06T12:56:57.373Z,4.17
2023-03-06T13:00:00.557Z,4.26
2023-03-06T13:03:51.302Z,4.38
2023-03-06T13:07:09.966Z,4.55
2023-03-06T13:10:26.771Z,4.49
2023-03-06T13:13:33.370Z,4.42
2023-03-06T13:16:37.361Z,4.42
2023-03-06T13:19:40.666Z,4.32
2023-03-06T13:22:46.712Z,4.31
2023-03-06T13:25:50.951Z,4.55
2023-03-06T13:28:57.882Z,4.53
2023-03-06T13:32:01.535Z,4.57
2023-03-06T13:35:34.693Z,4.57
2023-03-06T13:38:41.800Z,4.62
2023-03-06T13:41:59.304Z,4.75
2023-03-06T13:45:15.074Z,4.74
2023-03-06T13:48:43.817Z,4.87
2023-03-06T13:52:10.984Z,4.70
2023-03-06T13:55:41.298Z,4.77
2023-03-06T13:59:15.408Z,4.74
2023-03-06T14:02:24.988Z,4.76
2023-03-06T14:05:54.948Z,4.67
2023-03-06T14:08:59.372Z,4.56
2023-03-06T14:12:37.203Z,4.29
2023-03-06T14:15:40.300Z,4.26
2023-03-06T14:18:48.300Z,4.24
2023-03-06T14:21:57.274Z,4.17
2023-03-06T14:25:08.101Z,4.16
2023-03-06T14:28:29.273Z,4.06
2023-03-06T14:31:42.730Z,4.24
2023-03-06T14:34:47.750Z,4.29
2023-03-06T14:37:55.780Z,4.25
2023-03-06T14:40:59.202Z,4.31
2023-03-06T14:44:18.356Z,4.30
2023-03-06T14:47:27.605Z,4.35
2023-03-06T14:50:34.361Z,4.26
2023-03-06T14:53:38.009Z,4.22
2023-03-06T14:56:43.292Z,4.17
2023-03-06T15:00:00.250Z,4.15
2023-03-06T15:03:07.846Z,4.15
2023-03-06T15:06:17.808Z,4.22
2023-03-06T15:09:25.489Z,4.28
2023-03-06T15:12:34.135Z,4.26
2023-03-06T15:15:37.760Z,4.30
2023-03-06T15:18:55.789Z,4.26
2023-03-06T15:22:01.474Z,4.25
2023-03-06T15:25:19.942Z,4.21
2023-03-06T15:28:26.107Z,4.22
2023-03-06T15:31:31.988Z,4.20
2023-03-06T15:34:35.605Z,4.15
2023-03-06T15:37:38.874Z,4.13
2023-03-06T15:40:56.001Z,4.08
2023-03-06T15:44:01.503Z,4.01
2023-03-06T15:47:09.189Z,3.94
2023-03-06T15:50:24.992Z,3.87
2023-03-06T15:53:28.702Z,3.85
2023-03-06T15:56:35.375Z,3.80
2023-03-06T15:59:44.404Z,3.49
2023-03-06T16:02:47.881Z,3.69
2023-03-06T16:05:51.500Z,3.66
2023-03-06T16:08:54.970Z,3.61
2023-03-06T16:11:59.601Z,3.50
2023-03-06T16:15:03.466Z,3.52
2023-03-06T16:18:10.516Z,3.49
2023-03-06T16:21:14.938Z,3.47
2023-03-06T16:24:19.312Z,3.44
2023-03-06T16:27:26.071Z,3.45
2023-03-06T16:30:31.599Z,3.45
2023-03-06T16:33:35.405Z,3.44
2023-03-06T16:36:39.368Z,3.42
2023-03-06T16:39:43.375Z,3.40
2023-03-06T16:42:48.604Z,3.36
2023-03-06T16:45:52.776Z,3.33
2023-03-06T16:48:57.112Z,3.22
2023-03-06T16:52:01.241Z,3.15
2023-03-06T16:55:05.167Z,2.98
2023-03-06T16:58:08.840Z,2.96
2023-03-06T17:01:16.605Z,2.90
2023-03-06T17:04:20.170Z,2.88
2023-03-06T17:07:23.669Z,2.86
2023-03-06T17:10:27.845Z,2.89
2023-03-06T17:13:31.867Z,2.89
2023-03-06T17:16:39.394Z,2.79
2023-03-06T17:19:47.446Z,2.94
2023-03-06T17:22:51.032Z,2.92
2023-03-06T17:26:07.254Z,2.93
2023-03-06T17:29:12.518Z,2.92
2023-03-06T17:32:16.460Z,2.92
2023-03-06T17:35:20.541Z,2.93
2023-03-06T17:38:26.403Z,2.83
2023-03-06T17:41:33.160Z,2.82
2023-03-06T17:44:38.351Z,2.73
2023-03-06T17:47:44.697Z,2.71
2023-03-06T17:50:57.785Z,2.69
2023-03-06T17:54:02.158Z,2.71
2023-03-06T17:57:07.450Z,2.71
2023-03-06T18:00:12.086Z,2.68
2023-03-06T18:03:16.476Z,2.69
2023-03-06T18:06:22.795Z,2.70
2023-03-06T18:09:26.602Z,2.70
2023-03-06T18:12:32.031Z,2.70
2023-03-06T18:15:41.009Z,2.69
2023-03-06T18:18:45.352Z,2.67
2023-03-06T18:21:49.713Z,2.68
2023-03-06T18:24:54.969Z,2.68
2023-03-06T18:27:59.671Z,2.66
2023-03-06T18:31:19.369Z,2.57
2023-03-06T18:34:23.444Z,2.46
2023-03-06T18:37:29.931Z,2.33
2023-03-06T18:40:34.901Z,2.30
2023-03-06T18:43:40.366Z,2.21
2023-03-06T18:46:46.101Z,2.15
2023-03-06T18:49:52.032Z,2.01
2023-03-06T18:52:56.618Z,2.01
2023-03-06T18:56:04.125Z,1.96
2023-03-06T18:59:11.073Z,1.95
2023-03-06T19:02:16.696Z,1.91
2023-03-06T19:05:23.978Z,1.81
2023-03-06T19:08:29.212Z,1.70
2023-03-06T19:11:35.881Z,1.60
2023-03-06T19:14:43.130Z,1.48
2023-03-06T19:17:50.364Z,1.39
2023-03-06T19:20:57.156Z,1.28
2023-03-06T19:24:04.109Z,1.17
2023-03-06T19:27:09.684Z,1.10
2023-03-06T19:30:15.235Z,1.06
2023-03-06T19:33:23.829Z,1.05
2023-03-06T19:36:33.648Z,0.98
2023-03-06T19:39:40.267Z,1.05
2023-03-06T19:42:45.871Z,1.04
2023-03-06T19:45:52.821Z,1.06
2023-03-06T19:49:03.166Z,1.13
2023-03-06T19:52:08.252Z,1.15
2023-03-06T19:55:12.375Z,1.14
2023-03-06T19:58:17.516Z,1.02
2023-03-06T20:01:23.625Z,0.86
2023-03-06T20:04:35.035Z,0.75
2023-03-06T20:07:39.168Z,0.61
2023-03-06T20:10:44.163Z,0.48
2023-03-06T20:13:50.124Z,0.27
2023-03-06T20:16:54.844Z,0.35
2023-03-06T20:20:00.851Z,0.09
2023-03-06T20:23:06.502Z,0.23
2023-03-06T20:26:13.284Z,0.30
2023-03-06T20:29:19.343Z,0.27
2023-03-06T20:32:25.307Z,0.26
2023-03-06T20:35:30.718Z,0.19
2023-03-06T20:38:34.873Z,0.28
2023-03-06T20:41:40.612Z,0.51
2023-03-06T20:44:45.004Z,0.57
2023-03-06T20:47:50.945Z,0.64
2023-03-06T20:51:18.566Z,0.74
2023-03-06T20:54:23.651Z,0.76
2023-03-06T20:57:31.328Z,0.68
2023-03-06T21:00:35.056Z,0.75
2023-03-06T21:03:39.852Z,0.49
2023-03-06T21:06:47.335Z,0.29
2023-03-06T21:09:52.511Z,0.07
2023-03-06T21:12:57.775Z,-0.07
2023-03-06T21:16:07.116Z,-0.17
2023-03-06T21:19:12.149Z,-0.59
2023-03-06T21:22:16.754Z,-0.39
2023-03-06T21:25:21.246Z,-0.47
2023-03-06T21:28:25.062Z,-0.59
2023-03-06T21:31:31.652Z,-0.60
2023-03-06T21:34:35.353Z,-0.71
2023-03-06T21:37:38.865Z,-0.67
2023-03-06T21:40:42.913Z,-0.56
2023-03-06T21:43:46.821Z,-0.56
2023-03-06T21:46:50.237Z,-0.46
2023-03-06T21:49:53.781Z,-0.54
2023-03-06T21:52:57.614Z,-0.49
2023-03-06T21:56:01.944Z,-0.47
2023-03-06T21:59:05.187Z,-0.38
2023-03-06T22:02:10.740Z,-0.58
2023-03-06T22:05:14.538Z,-0.36
2023-03-06T22:08:21.347Z,-0.34
2023-03-06T22:11:26.411Z,-0.43
2023-03-06T22:14:30.003Z,-0.48
2023-03-06T22:17:33.529Z,-0.47
2023-03-06T22:20:39.649Z,-0.51
2023-03-06T22:23:43.512Z,-0.80
2023-03-06T22:26:46.741Z,-0.45
2023-03-06T22:29:50.305Z,-0.35
2023-03-06T22:32:53.670Z,-0.31
2023-03-06T22:36:08.113Z,-0.53
2023-03-06T22:39:13.619Z,-0.20
2023-03-06T22:42:17.384Z,-0.12
2023-03-06T22:45:20.512Z,-0.11
2023-03-06T22:48:23.959Z,-0.10
2023-03-06T22:51:29.521Z,-0.12
2023-03-06T22:54:34.437Z,-0.09
2023-03-06T22:57:37.526Z,-0.08
2023-03-06T23:00:42.164Z,-0.08
2023-03-06T23:03:51.616Z,-0.09
2023-03-06T23:06:55.119Z,-0.11
2023-03-06T23:09:58.949Z,-0.14
2023-03-06T23:13:20.379Z,-0.26
2023-03-06T23:16:41.666Z,-0.38
2023-03-06T23:20:10.135Z,-0.49
2023-03-06T23:23:31.651Z,-0.59
2023-03-06T23:26:36.186Z,-0.74
2023-03-06T23:29:39.836Z,-0.89
2023-03-06T23:32:46.013Z,-0.92
2023-03-06T23:35:50.260Z,-0.89
2023-03-06T23:38:53.715Z,-0.83
2023-03-06T23:41:57.221Z,-0.83
2023-03-06T23:45:00.795Z,-0.86
2023-03-06T23:48:07.356Z,-0.89
2023-03-06T23:51:17.810Z,-0.93
2023-03-06T23:54:21.177Z,-0.92
2023-03-06T23:57:25.489Z,-1.14
